Time;durP1;ratioP1;P1;durP2;ratioP2;P2;SDS_P1;SDS_P2;PMS_P1;PMS_P2;Temp;Humidity;BMP_temperature;BMP_pressure;BME280_temperature;BME280_humidity;BME280_pressure;Samples;Min_cycle;Max_cycle;Signal;HPM_P1;HPM_P2
2024/02/17 00:00:03;;;;;;;69.60;48.00;;;;;;;4.30;100.00;99363.71;109264;1254;58999;-78
2024/02/17 00:02:31;;;;;;;67.30;48.30;;;;;;;4.36;100.00;99363.52;109316;1254;65745;-77
2024/02/17 00:04:58;;;;;;;71.10;50.10;;;;;;;4.43;100.00;99366.80;109280;1254;59745;-78
2024/02/17 00:07:25;;;;;;;71.50;49.70;;;;;;;4.48;100.00;99366.77;109240;1254;63971;-78
2024/02/17 00:09:51;;;;;;;64.30;46.70;;;;;;;4.53;100.00;99368.20;109281;1254;58959;-78
2024/02/17 00:12:18;;;;;;;67.80;48.90;;;;;;;4.56;100.00;99373.71;109065;1254;59035;-78
2024/02/17 00:14:45;;;;;;;65.60;45.30;;;;;;;4.58;100.00;99372.21;109293;1254;67014;-78
2024/02/17 00:17:11;;;;;;;66.10;46.40;;;;;;;4.61;100.00;99371.25;109268;1254;61073;-78
2024/02/17 00:19:38;;;;;;;66.10;46.90;;;;;;;4.64;100.00;99375.88;109298;1254;65100;-77
2024/02/17 00:22:05;;;;;;;67.70;46.00;;;;;;;4.67;100.00;99372.94;109258;1254;58941;-78
2024/02/17 00:24:31;;;;;;;63.50;45.90;;;;;;;4.70;100.00;99373.52;109301;1254;59141;-77
2024/02/17 00:26:58;;;;;;;68.60;47.10;;;;;;;4.72;100.00;99375.41;109061;1254;67100;-78
2024/02/17 00:29:25;;;;;;;67.50;49.10;;;;;;;4.74;100.00;99372.68;109298;1254;61086;-79
2024/02/17 00:31:51;;;;;;;59.50;44.60;;;;;;;4.77;100.00;99372.04;109281;1254;64134;-78
2024/02/17 00:34:18;;;;;;;65.40;44.80;;;;;;;4.78;100.00;99371.29;109309;1254;58971;-78
2024/02/17 00:36:45;;;;;;;64.20;47.20;;;;;;;4.78;100.00;99371.83;109042;1254;59237;-77
2024/02/17 00:39:11;;;;;;;61.90;45.90;;;;;;;4.79;100.00;99371.46;109271;1254;66961;-78
2024/02/17 00:41:39;;;;;;;63.80;46.60;;;;;;;4.78;100.00;99377.10;109295;1254;59966;-78
2024/02/17 00:44:05;;;;;;;65.00;47.60;;;;;;;4.77;100.00;99373.28;109290;1254;64139;-78
2024/02/17 00:46:32;;;;;;;64.60;48.10;;;;;;;4.76;100.00;99377.02;109327;1254;59258;-79
2024/02/17 00:48:59;;;;;;;69.70;48.50;;;;;;;4.75;100.00;99378.65;109233;1254;58973;-78
2024/02/17 00:51:27;;;;;;;63.90;46.60;;;;;;;4.74;100.00;99379.03;109526;1254;65728;-78
2024/02/17 00:53:53;;;;;;;61.80;44.40;;;;;;;4.73;100.00;99377.83;109066;1254;61544;-78
2024/02/17 00:56:21;;;;;;;61.80;45.10;;;;;;;4.74;100.00;99375.33;109041;1254;65064;-77
2024/02/17 00:58:48;;;;;;;57.20;43.90;;;;;;;4.73;100.00;99377.83;109349;1254;59030;-80
2024/02/17 01:01:16;;;;;;;63.00;46.20;;;;;;;4.72;100.00;99379.80;109327;1256;58958;-76
2024/02/17 01:03:42;;;;;;;67.90;47.70;;;;;;;4.72;100.00;99379.80;109466;1254;66044;-77
2024/02/17 01:06:09;;;;;;;62.80;47.00;;;;;;;4.72;100.00;99384.74;109361;1260;60007;-78
2024/02/17 01:08:36;;;;;;;63.30;46.30;;;;;;;4.71;100.00;99383.70;109544;1254;65654;-77
2024/02/17 01:11:03;;;;;;;66.10;48.20;;;;;;;4.69;100.00;99379.55;109557;1254;59122;-78
2024/02/17 01:13:30;;;;;;;67.00;49.50;;;;;;;4.69;100.00;99377.98;109214;1254;58346;-77
2024/02/17 01:15:58;;;;;;;73.60;52.80;;;;;;;4.69;100.00;99378.86;109433;1254;66039;-77
2024/02/17 01:18:25;;;;;;;74.60;55.60;;;;;;;4.70;100.00;99380.93;109537;1254;60743;-77
2024/02/17 01:20:52;;;;;;;72.70;52.90;;;;;;;4.71;100.00;99380.02;109475;1254;64770;-78
2024/02/17 01:23:19;;;;;;;68.50;52.30;;;;;;;4.70;100.00;99383.60;109100;1254;58508;-77
2024/02/17 01:25:46;;;;;;;65.80;48.90;;;;;;;4.66;100.00;99384.80;109464;1255;59065;-77
2024/02/17 01:28:13;;;;;;;63.70;47.60;;;;;;;4.60;100.00;99387.09;109452;1254;65948;-77
2024/02/17 01:30:41;;;;;;;65.60;48.50;;;;;;;4.55;100.00;99387.45;109494;1254;60207;-78
2024/02/17 01:33:08;;;;;;;68.60;49.90;;;;;;;4.49;100.00;99388.21;109327;1254;62736;-78
2024/02/17 01:35:35;;;;;;;68.60;50.10;;;;;;;4.42;100.00;99384.75;109310;1254;59095;-79
2024/02/17 01:38:02;;;;;;;75.30;51.60;;;;;;;4.37;100.00;99388.28;109314;1254;59776;-77
2024/02/17 01:40:29;;;;;;;65.80;50.40;;;;;;;4.32;100.00;99387.23;109316;1254;66716;-77
2024/02/17 01:42:56;;;;;;;66.10;49.30;;;;;;;4.27;100.00;99384.95;109334;1254;61050;-78
2024/02/17 01:45:23;;;;;;;70.70;52.10;;;;;;;4.23;100.00;99385.77;109339;1254;65294;-79
2024/02/17 01:47:49;;;;;;;71.00;50.90;;;;;;;4.20;100.00;99387.47;109328;1256;59501;-78
2024/02/17 01:50:17;;;;;;;70.80;51.20;;;;;;;4.17;100.00;99386.86;109296;1254;59020;-78
2024/02/17 01:52:45;;;;;;;67.20;49.50;;;;;;;4.14;100.00;99386.81;109340;1254;66108;-78
2024/02/17 01:55:13;;;;;;;71.50;51.50;;;;;;;4.09;100.00;99383.98;109348;1254;61125;-78
2024/02/17 01:57:41;;;;;;;71.20;49.40;;;;;;;4.06;100.00;99387.09;109335;1254;65015;-77
2024/02/17 02:00:09;;;;;;;72.30;50.60;;;;;;;4.01;100.00;99385.82;109351;1254;59014;-77
2024/02/17 02:02:38;;;;;;;69.20;53.80;;;;;;;3.96;100.00;99387.58;109143;1254;58954;-78
2024/02/17 02:05:05;;;;;;;68.40;50.10;;;;;;;3.90;100.00;99389.89;109350;1254;66983;-78
2024/02/17 02:07:32;;;;;;;64.70;48.60;;;;;;;3.86;100.00;99390.02;109336;1254;61153;-76
2024/02/17 02:09:59;;;;;;;65.90;47.90;;;;;;;3.82;100.00;99390.35;109316;1254;65021;-78
2024/02/17 02:12:25;;;;;;;71.30;53.00;;;;;;;3.76;100.00;99390.35;109343;1254;58995;-78
2024/02/17 02:15:06;;;;;;;74.50;52.30;;;;;;;3.72;100.00;99395.40;109054;1254;59044;-78
2024/02/17 02:17:33;;;;;;;66.70;47.40;;;;;;;3.71;100.00;99394.39;109300;1254;65959;-78
2024/02/17 02:20:00;;;;;;;68.70;48.90;;;;;;;3.70;100.00;99397.23;109324;1254;61085;-79
2024/02/17 02:22:26;;;;;;;62.60;47.60;;;;;;;3.67;100.00;99396.24;109293;1254;64044;-79
2024/02/17 02:24:57;;;;;;;65.40;45.90;;;;;;;3.65;100.00;99396.33;109326;1254;59062;-79
2024/02/17 02:27:24;;;;;;;61.10;44.70;;;;;;;3.63;100.00;99396.59;109327;1254;59180;-79
2024/02/17 02:29:52;;;;;;;61.50;46.20;;;;;;;3.60;100.00;99397.89;109335;1254;66431;-80
2024/02/17 02:32:19;;;;;;;60.60;45.10;;;;;;;3.57;100.00;99397.14;109348;1254;61243;-79
2024/02/17 02:34:47;;;;;;;61.60;47.80;;;;;;;3.54;100.00;99403.20;109314;1254;64177;-78
2024/02/17 02:37:14;;;;;;;65.60;48.60;;;;;;;3.51;100.00;99401.52;109087;1254;59343;-79
2024/02/17 02:39:41;;;;;;;63.80;47.90;;;;;;;3.50;100.00;99399.64;109354;1254;59779;-78
2024/02/17 02:42:08;;;;;;;67.60;51.90;;;;;;;3.48;100.00;99397.57;109325;1254;65691;-78
2024/02/17 02:44:34;;;;;;;67.00;49.80;;;;;;;3.48;100.00;99396.70;109312;1254;61034;-77
2024/02/17 02:47:01;;;;;;;64.90;48.30;;;;;;;3.47;100.00;99394.09;109300;1254;62817;-77
2024/02/17 02:49:27;;;;;;;66.70;49.20;;;;;;;3.48;100.00;99395.14;109310;1256;59610;-77
2024/02/17 02:51:54;;;;;;;64.30;46.80;;;;;;;3.47;100.00;99397.09;109314;1254;59068;-78
2024/02/17 02:54:21;;;;;;;57.80;44.60;;;;;;;3.45;100.00;99396.12;109365;1254;67048;-78
2024/02/17 02:56:48;;;;;;;62.60;48.60;;;;;;;3.42;100.00;99397.96;109335;1254;60760;-79
2024/02/17 02:59:15;;;;;;;66.50;49.30;;;;;;;3.40;100.00;99401.00;109295;1254;63994;-78
2024/02/17 03:01:42;;;;;;;62.30;47.20;;;;;;;3.39;100.00;99398.56;109316;1254;59228;-77
2024/02/17 03:04:08;;;;;;;57.50;42.70;;;;;;;3.37;100.00;99397.23;109055;1254;59033;-77
2024/02/17 03:06:36;;;;;;;57.00;45.70;;;;;;;3.32;100.00;99398.96;109324;1254;64693;-77
2024/02/17 03:09:02;;;;;;;57.40;43.50;;;;;;;3.31;100.00;99397.59;109328;1254;59806;-78
2024/02/17 03:11:29;;;;;;;54.40;41.20;;;;;;;3.31;100.00;99402.15;109039;1254;65086;-77
2024/02/17 03:13:56;;;;;;;58.80;44.40;;;;;;;3.32;100.00;99403.71;109296;1254;58972;-79
2024/02/17 03:16:24;;;;;;;59.20;45.70;;;;;;;3.35;100.00;99408.20;109328;1254;59037;-78
2024/02/17 03:18:53;;;;;;;61.20;45.70;;;;;;;3.37;100.00;99413.75;109347;1254;67032;-79
2024/02/17 03:21:21;;;;;;;59.50;46.70;;;;;;;3.39;100.00;99417.54;109313;1254;60085;-78
2024/02/17 03:23:47;;;;;;;67.60;49.50;;;;;;;3.43;100.00;99418.13;109288;1254;65031;-78
2024/02/17 03:26:14;;;;;;;62.70;46.40;;;;;;;3.46;100.00;99416.44;109061;1254;59179;-77
2024/02/17 03:28:41;;;;;;;66.10;50.60;;;;;;;3.50;100.00;99416.50;109146;1254;59575;-78
2024/02/17 03:31:08;;;;;;;64.10;50.30;;;;;;;3.54;100.00;99418.48;109283;1254;66077;-77
2024/02/17 03:33:34;;;;;;;67.80;52.00;;;;;;;3.58;100.00;99421.69;109313;1254;60054;-78
2024/02/17 03:36:01;;;;;;;65.30;50.50;;;;;;;3.62;100.00;99425.25;109291;1254;65266;-77
2024/02/17 03:38:27;;;;;;;68.70;48.70;;;;;;;3.65;100.00;99427.09;109268;1254;59104;-78
2024/02/17 03:40:54;;;;;;;59.50;43.10;;;;;;;3.67;100.00;99430.88;109080;1254;59961;-78
2024/02/17 03:43:21;;;;;;;59.00;44.70;;;;;;;3.67;100.00;99434.20;109371;1254;65881;-77
2024/02/17 03:45:48;;;;;;;53.40;42.40;;;;;;;3.68;100.00;99436.49;109314;1255;59102;-79
2024/02/17 03:48:14;;;;;;;57.20;44.50;;;;;;;3.68;100.00;99433.13;109217;1255;64824;-77
2024/02/17 03:50:41;;;;;;;56.50;44.20;;;;;;;3.68;100.00;99433.14;108978;1256;59014;-78
2024/02/17 03:53:08;;;;;;;57.10;44.20;;;;;;;3.67;100.00;99433.88;109228;1255;59036;-78
2024/02/17 03:55:35;;;;;;;55.50;42.30;;;;;;;3.66;100.00;99441.46;109220;1255;67208;-77
2024/02/17 03:58:02;;;;;;;70.00;51.00;;;;;;;3.67;100.00;99443.54;109000;1255;60764;-77
2024/02/17 04:00:28;;;;;;;70.60;51.30;;;;;;;3.69;100.00;99442.44;109195;1255;64967;-76
2024/02/17 04:02:55;;;;;;;66.20;49.30;;;;;;;3.71;100.00;99440.62;108951;1256;59021;-77
2024/02/17 04:05:22;;;;;;;64.10;49.00;;;;;;;3.71;100.00;99441.81;109163;1255;59026;-77
2024/02/17 04:07:48;;;;;;;66.40;47.70;;;;;;;3.71;100.00;99440.60;109204;1256;67004;-77
2024/02/17 04:10:15;;;;;;;61.00;48.10;;;;;;;3.71;100.00;99435.86;109231;1255;61086;-79
2024/02/17 04:12:45;;;;;;;61.10;49.60;;;;;;;3.70;100.00;99440.27;109222;1255;65380;-78
2024/02/17 04:15:11;;;;;;;76.10;54.30;;;;;;;3.69;100.00;99441.54;109206;1255;59417;-78
2024/02/17 04:17:38;;;;;;;69.30;52.30;;;;;;;3.70;100.00;99448.88;109192;1255;59022;-78
2024/02/17 04:20:05;;;;;;;68.40;53.70;;;;;;;3.73;100.00;99448.64;109195;1255;64828;-78
2024/02/17 04:22:32;;;;;;;68.90;53.90;;;;;;;3.76;100.00;99444.50;109199;1255;60067;-78
2024/02/17 04:24:59;;;;;;;69.00;48.90;;;;;;;3.78;100.00;99444.09;109210;1255;63830;-77
2024/02/17 04:27:26;;;;;;;65.70;49.10;;;;;;;3.79;100.00;99444.94;109189;1255;58956;-80
2024/02/17 04:29:53;;;;;;;61.60;48.00;;;;;;;3.79;100.00;99448.10;109048;1255;59182;-78
2024/02/17 04:32:19;;;;;;;66.00;50.30;;;;;;;3.79;100.00;99445.99;109195;1255;67092;-78
2024/02/17 04:34:47;;;;;;;64.60;49.20;;;;;;;3.82;100.00;99444.30;109186;1255;61402;-77
2024/02/17 04:37:14;;;;;;;55.20;42.10;;;;;;;3.86;100.00;99449.08;108932;1256;62977;-77
2024/02/17 04:39:41;;;;;;;59.50;44.30;;;;;;;3.89;100.00;99447.95;109192;1255;59000;-78
2024/02/17 04:42:07;;;;;;;54.40;40.50;;;;;;;3.92;100.00;99448.73;109162;1255;58857;-78
2024/02/17 04:44:35;;;;;;;62.30;48.60;;;;;;;3.92;100.00;99447.83;108435;1255;1002855;-77
2024/02/17 04:47:02;;;;;;;57.80;43.50;;;;;;;3.94;100.00;99448.28;109219;1255;61273;-77
2024/02/17 04:49:28;;;;;;;59.40;45.20;;;;;;;3.96;100.00;99446.13;109196;1255;64020;-78
2024/02/17 04:51:55;;;;;;;62.80;49.30;;;;;;;3.99;100.00;99445.16;108923;1258;60029;-78
2024/02/17 04:54:22;;;;;;;58.00;46.10;;;;;;;4.01;100.00;99444.55;108952;1259;59070;-77
2024/02/17 04:56:48;;;;;;;58.00;44.60;;;;;;;4.04;100.00;99448.66;108913;1259;67081;-78
2024/02/17 04:59:15;;;;;;;53.40;40.30;;;;;;;4.06;100.00;99454.95;108945;1259;60935;-78
2024/02/17 05:01:44;;;;;;;53.80;42.30;;;;;;;4.06;100.00;99455.48;108925;1259;65239;-77
2024/02/17 05:04:11;;;;;;;59.60;44.70;;;;;;;4.06;100.00;99457.05;108925;1259;59094;-77
2024/02/17 05:06:38;;;;;;;60.90;46.80;;;;;;;4.07;100.00;99458.07;108918;1259;59239;-77
2024/02/17 05:09:04;;;;;;;61.60;45.80;;;;;;;4.11;100.00;99462.16;108912;1258;67324;-77
2024/02/17 05:11:31;;;;;;;59.30;46.20;;;;;;;4.14;100.00;99463.65;108817;1258;61056;-77
2024/02/17 05:13:57;;;;;;;63.00;48.40;;;;;;;4.15;100.00;99466.40;108929;1258;64323;-77
2024/02/17 05:16:26;;;;;;;62.90;49.10;;;;;;;4.17;100.00;99464.06;108926;1259;59014;-77
2024/02/17 05:18:52;;;;;;;64.00;47.80;;;;;;;4.20;100.00;99463.27;108947;1259;59007;-77
2024/02/17 05:21:19;;;;;;;67.30;50.30;;;;;;;4.23;100.00;99463.52;108956;1258;67035;-77
2024/02/17 05:23:45;;;;;;;63.70;47.70;;;;;;;4.25;100.00;99463.09;109087;1256;60324;-77
2024/02/17 05:26:12;;;;;;;66.60;52.20;;;;;;;4.27;100.00;99466.54;109186;1256;65101;-77
2024/02/17 05:28:38;;;;;;;80.50;58.40;;;;;;;4.30;100.00;99463.10;109191;1255;59193;-78
2024/02/17 05:31:23;;;;;;;68.30;53.40;;;;;;;4.33;100.00;99470.71;109017;1256;59074;-77
2024/02/17 05:33:49;;;;;;;64.80;50.10;;;;;;;4.35;100.00;99474.70;109231;1255;67294;-78
2024/02/17 05:36:16;;;;;;;75.10;57.00;;;;;;;4.37;100.00;99475.89;109252;1255;60037;-77
2024/02/17 05:38:42;;;;;;;69.90;51.70;;;;;;;4.39;100.00;99473.70;109193;1256;65178;-79
2024/02/17 05:41:09;;;;;;;68.00;52.10;;;;;;;4.42;100.00;99476.80;108984;1255;59248;-79
2024/02/17 05:43:35;;;;;;;64.80;50.80;;;;;;;4.44;100.00;99473.56;109154;1256;58978;-80
2024/02/17 05:46:02;;;;;;;66.90;52.50;;;;;;;4.44;100.00;99472.48;109000;1256;65954;-79
2024/02/17 05:48:29;;;;;;;62.50;49.10;;;;;;;4.44;100.00;99472.33;109235;1255;61267;-79
2024/02/17 05:50:56;;;;;;;55.10;44.60;;;;;;;4.41;100.00;99473.98;109157;1256;64084;-79
2024/02/17 05:53:22;;;;;;;56.80;45.50;;;;;;;4.39;100.00;99484.26;109179;1255;58985;-80
2024/02/17 05:55:49;;;;;;;73.30;55.60;;;;;;;4.37;100.00;99499.27;109186;1256;58905;-78
2024/02/17 05:58:16;;;;;;;83.90;62.70;;;;;;;4.38;100.00;99504.71;109223;1255;66992;-79
2024/02/17 06:00:42;;;;;;;81.70;63.00;;;;;;;4.41;100.00;99503.89;109169;1255;60250;-78
2024/02/17 06:03:09;;;;;;;73.40;56.70;;;;;;;4.47;100.00;99496.52;109195;1255;65030;-79
2024/02/17 06:05:35;;;;;;;66.70;56.10;;;;;;;4.52;100.00;99495.61;109167;1256;58939;-79
2024/02/17 06:08:03;;;;;;;61.40;46.90;;;;;;;4.57;100.00;99498.44;109225;1255;58955;-79
2024/02/17 06:10:29;;;;;;;57.70;47.50;;;;;;;4.59;100.00;99501.86;109194;1256;65960;-80
2024/02/17 06:12:56;;;;;;;62.30;51.40;;;;;;;4.63;100.00;99506.67;109217;1256;61564;-79
2024/02/17 06:15:24;;;;;;;63.10;50.40;;;;;;;4.68;100.00;99508.25;108967;1255;64767;-79
2024/02/17 06:21:10;;;;;;;69.00;52.40;;;;;;;4.74;100.00;99512.61;109165;1256;59006;-79
2024/02/17 06:23:26;;;;;;;68.40;54.50;;;;;;;4.93;100.00;99519.88;108986;1256;66995;-79
2024/02/17 06:25:52;;;;;;;67.10;51.80;;;;;;;5.03;100.00;99521.80;109186;1256;69031;-80
2024/02/17 06:28:19;;;;;;;70.70;54.80;;;;;;;5.13;100.00;99527.30;109157;1256;64129;-80
2024/02/17 06:30:45;;;;;;;65.60;54.30;;;;;;;5.21;100.00;99526.09;109166;1256;59258;-79
2024/02/17 06:33:12;;;;;;;68.50;54.20;;;;;;;5.29;100.00;99528.80;109214;1256;58923;-79
2024/02/17 06:35:39;;;;;;;69.90;52.70;;;;;;;5.37;100.00;99525.89;109201;1255;66171;-80
2024/02/17 06:38:06;;;;;;;67.40;52.50;;;;;;;5.44;100.00;99533.89;109212;1255;60297;-78
2024/02/17 06:40:33;;;;;;;67.70;52.30;;;;;;;5.52;100.00;99535.00;109175;1255;65031;-79
2024/02/17 06:42:59;;;;;;;59.40;49.70;;;;;;;5.59;100.00;99538.61;109179;1259;59002;-80
2024/02/17 06:45:26;;;;;;;55.60;44.80;;;;;;;5.66;100.00;99540.10;109219;1255;59023;-79
2024/02/17 06:47:52;;;;;;;41.00;33.20;;;;;;;5.75;100.00;99539.42;109188;1256;66207;-79
2024/02/17 06:50:19;;;;;;;40.10;32.40;;;;;;;5.86;100.00;99542.67;109009;1256;61451;-79
2024/02/17 06:52:46;;;;;;;33.40;28.40;;;;;;;6.00;100.00;99547.98;109182;1256;65069;-78
2024/02/17 06:55:12;;;;;;;32.50;24.90;;;;;;;6.14;100.00;99546.38;109183;1256;58980;-79
2024/02/17 06:57:39;;;;;;;29.60;24.50;;;;;;;6.29;100.00;99553.71;109196;1256;59050;-79
2024/02/17 07:00:06;;;;;;;27.70;22.50;;;;;;;6.46;100.00;99554.80;109178;1255;67127;-79
2024/02/17 07:02:33;;;;;;;25.30;20.80;;;;;;;6.64;100.00;99558.09;109226;1255;59818;-78
2024/02/17 07:04:59;;;;;;;23.80;20.30;;;;;;;6.84;100.00;99559.55;109175;1256;65055;-78
2024/02/17 07:07:26;;;;;;;24.20;20.40;;;;;;;7.06;100.00;99562.34;109145;1255;58991;-79
2024/02/17 07:09:53;;;;;;;20.70;17.30;;;;;;;7.28;100.00;99560.31;108982;1256;58981;-80
2024/02/17 07:12:19;;;;;;;24.40;18.40;;;;;;;7.50;100.00;99564.97;109150;1255;67007;-79
2024/02/17 07:14:46;;;;;;;23.10;18.10;;;;;;;7.73;100.00;99566.92;108931;1259;59079;-79
2024/02/17 07:17:13;;;;;;;23.00;17.60;;;;;;;7.95;100.00;99563.40;108961;1258;65242;-78
2024/02/17 07:19:40;;;;;;;26.70;18.20;;;;;;;8.17;100.00;99566.80;108936;1259;59073;-80
2024/02/17 07:22:08;;;;;;;21.50;16.80;;;;;;;8.37;100.00;99567.98;108813;1259;58978;-79
2024/02/17 07:24:35;;;;;;;20.60;17.60;;;;;;;8.51;100.00;99573.88;108954;1258;67443;-77
2024/02/17 07:27:01;;;;;;;20.50;15.90;;;;;;;8.60;100.00;99578.94;108935;1259;60050;-78
2024/02/17 07:29:28;;;;;;;17.10;13.40;;;;;;;8.62;100.00;99585.23;108824;1259;64218;-79
2024/02/17 07:31:55;;;;;;;15.70;12.60;;;;;;;8.61;100.00;99584.71;108961;1258;59033;-79
2024/02/17 07:34:22;;;;;;;14.00;11.10;;;;;;;8.63;100.00;99587.12;108922;1259;58918;-79
2024/02/17 07:36:48;;;;;;;15.30;9.90;;;;;;;8.65;100.00;99593.03;108940;1259;67007;-78
2024/02/17 07:39:15;;;;;;;12.60;10.40;;;;;;;8.67;100.00;99598.42;108947;1259;60065;-76
2024/02/17 07:41:42;;;;;;;14.80;10.60;;;;;;;8.68;100.00;99601.20;108917;1259;65223;-76
2024/02/17 07:44:08;;;;;;;11.90;10.70;;;;;;;8.66;100.00;99606.95;108967;1259;59011;-77
2024/02/17 07:46:36;;;;;;;13.80;11.90;;;;;;;8.65;100.00;99614.28;109143;1255;58999;-76
2024/02/17 07:49:02;;;;;;;12.20;10.10;;;;;;;8.62;100.00;99616.56;109161;1256;67015;-77
2024/02/17 07:51:29;;;;;;;12.10;10.50;;;;;;;8.58;100.00;99620.64;109022;1256;60051;-76
2024/02/17 07:53:56;;;;;;;11.30;10.20;;;;;;;8.55;100.00;99622.39;109172;1256;65078;-75
2024/02/17 07:56:23;;;;;;;11.50;10.30;;;;;;;8.52;100.00;99627.31;109163;1256;59247;-76
2024/02/17 07:58:50;;;;;;;12.00;10.60;;;;;;;8.49;100.00;99633.27;109201;1256;59035;-76
2024/02/17 08:01:19;;;;;;;12.40;10.80;;;;;;;8.48;100.00;99636.52;109188;1256;65299;-75
2024/02/17 08:03:45;;;;;;;13.30;11.00;;;;;;;8.47;100.00;99643.50;109152;1256;61009;-77
2024/02/17 08:06:16;;;;;;;14.20;10.90;;;;;;;8.46;100.00;99646.73;109151;1256;65148;-76
2024/02/17 08:08:45;;;;;;;14.70;10.30;;;;;;;8.46;100.00;99647.63;109167;1256;58933;-75
2024/02/17 08:11:11;;;;;;;13.50;10.90;;;;;;;8.45;100.00;99651.20;109208;1256;58974;-77
2024/02/17 08:13:38;;;;;;;13.30;11.90;;;;;;;8.44;100.00;99652.11;109173;1256;66994;-76
2024/02/17 08:16:05;;;;;;;15.40;11.60;;;;;;;8.44;100.00;99660.12;109112;1256;60225;-76
2024/02/17 08:18:32;;;;;;;16.00;13.10;;;;;;;8.43;100.00;99657.14;109153;1256;65245;-76
2024/02/17 08:21:01;;;;;;;14.90;11.80;;;;;;;8.44;100.00;99659.59;108959;1256;58961;-78
2024/02/17 08:23:28;;;;;;;14.60;11.20;;;;;;;8.44;100.00;99659.73;109102;1256;59024;-77
2024/02/17 08:25:55;;;;;;;14.30;11.70;;;;;;;8.44;100.00;99664.33;109126;1256;66056;-76
2024/02/17 08:28:22;;;;;;;13.40;11.90;;;;;;;8.43;100.00;99671.46;109116;1256;59330;-76
2024/02/17 08:30:49;;;;;;;13.20;11.50;;;;;;;8.43;100.00;99673.10;109119;1256;65344;-75
2024/02/17 08:33:16;;;;;;;13.00;11.00;;;;;;;8.39;100.00;99674.66;108983;1260;59374;-75
2024/02/17 08:35:45;;;;;;;12.20;10.90;;;;;;;8.35;100.00;99672.67;108956;1262;59082;-76
2024/02/17 08:38:12;;;;;;;12.60;10.30;;;;;;;8.31;100.00;99678.36;108980;1259;65931;-76
2024/02/17 08:40:38;;;;;;;13.50;11.20;;;;;;;8.28;100.00;99681.17;108982;1260;61044;-76
2024/02/17 08:43:05;;;;;;;14.50;11.40;;;;;;;8.26;100.00;99677.38;108977;1258;65056;-76
2024/02/17 08:45:32;;;;;;;13.50;11.10;;;;;;;8.25;100.00;99676.02;108952;1259;59122;-76
2024/02/17 08:47:58;;;;;;;14.70;12.10;;;;;;;8.23;100.00;99680.54;108950;1259;58998;-77
2024/02/17 08:50:25;;;;;;;16.60;13.00;;;;;;;8.20;100.00;99683.84;108982;1260;66847;-76
2024/02/17 08:52:51;;;;;;;15.60;12.50;;;;;;;8.19;100.00;99686.56;108993;1259;60037;-76
2024/02/17 08:55:18;;;;;;;15.80;12.10;;;;;;;8.16;100.00;99690.73;108958;1260;62758;-77
2024/02/17 08:57:45;;;;;;;15.20;12.40;;;;;;;8.13;100.00;99693.70;108967;1259;59259;-77
2024/02/17 09:00:12;;;;;;;15.30;13.60;;;;;;;8.13;100.00;99699.38;108982;1260;59140;-77
2024/02/17 09:02:39;;;;;;;17.00;12.60;;;;;;;8.13;100.00;99700.24;108979;1260;67226;-76
2024/02/17 09:05:06;;;;;;;15.90;13.20;;;;;;;8.14;100.00;99704.48;109084;1257;61136;-76
2024/02/17 09:07:33;;;;;;;15.50;11.40;;;;;;;8.16;100.00;99710.07;109102;1256;65076;-75
2024/02/17 09:09:59;;;;;;;13.70;11.00;;;;;;;8.17;100.00;99712.99;109135;1256;59326;-76
2024/02/17 09:12:26;;;;;;;16.70;13.00;;;;;;;8.20;100.00;99716.57;109137;1256;59304;-75
2024/02/17 09:14:53;;;;;;;13.90;12.30;;;;;;;8.21;100.00;99719.53;108945;1257;65973;-77
2024/02/17 09:17:19;;;;;;;14.70;12.20;;;;;;;8.21;100.00;99719.73;109137;1256;61407;-75
2024/02/17 09:19:46;;;;;;;13.50;12.00;;;;;;;8.20;100.00;99719.27;109109;1256;62864;-75
2024/02/17 09:22:13;;;;;;;13.60;12.20;;;;;;;8.17;100.00;99717.80;109111;1256;59293;-75
2024/02/17 09:24:41;;;;;;;17.70;13.40;;;;;;;8.11;100.00;99720.73;109019;1256;58876;-79
2024/02/17 09:27:09;;;;;;;17.10;13.20;;;;;;;8.05;100.00;99727.73;109145;1256;65538;-76
2024/02/17 09:29:35;;;;;;;14.80;12.60;;;;;;;8.01;100.00;99731.45;109157;1260;60108;-75
2024/02/17 09:32:02;;;;;;;15.40;12.70;;;;;;;7.98;100.00;99737.77;109121;1257;64204;-75
2024/02/17 09:34:30;;;;;;;15.20;13.30;;;;;;;7.94;100.00;99736.19;109103;1256;58965;-76
2024/02/17 09:36:56;;;;;;;16.10;14.40;;;;;;;7.92;100.00;99736.42;109151;1258;58931;-77
2024/02/17 09:39:26;;;;;;;15.50;13.80;;;;;;;7.91;100.00;99739.99;109107;1259;65988;-77
2024/02/17 09:41:54;;;;;;;16.60;13.50;;;;;;;7.91;100.00;99740.35;109004;1256;60056;-76
2024/02/17 09:44:20;;;;;;;15.20;13.50;;;;;;;7.89;100.00;99740.95;109107;1256;65310;-77
2024/02/17 09:46:47;;;;;;;15.30;13.60;;;;;;;7.88;100.00;99744.02;108976;1256;59038;-76
2024/02/17 09:49:15;;;;;;;16.90;15.10;;;;;;;7.88;100.00;99746.70;109146;1257;59020;-76
2024/02/17 09:51:45;;;;;;;16.70;14.20;;;;;;;7.87;100.00;99749.91;109139;1256;67001;-75
2024/02/17 09:54:15;;;;;;;14.90;13.40;;;;;;;7.86;100.00;99746.95;109152;1256;61228;-76
2024/02/17 09:56:42;;;;;;;17.70;14.70;;;;;;;7.86;100.00;99746.78;109150;1256;64219;-76
2024/02/17 09:59:10;;;;;;;16.70;13.40;;;;;;;7.86;100.00;99740.41;109176;1256;59005;-76
2024/02/17 10:01:37;;;;;;;18.80;15.30;;;;;;;7.89;100.00;99735.84;109050;1257;58889;-75
2024/02/17 10:04:06;;;;;;;17.90;14.80;;;;;;;7.94;100.00;99737.78;109176;1256;66005;-76
2024/02/17 10:06:33;;;;;;;19.50;15.20;;;;;;;7.97;100.00;99737.44;109207;1256;61158;-76
2024/02/17 10:09:01;;;;;;;17.20;15.20;;;;;;;8.01;100.00;99744.52;109121;1256;65333;-74
2024/02/17 10:11:31;;;;;;;18.80;15.20;;;;;;;8.02;100.00;99750.85;109146;1256;58971;-75
2024/02/17 10:14:03;;;;;;;17.80;15.20;;;;;;;8.01;100.00;99753.00;109001;1256;59046;-76
2024/02/17 10:16:31;;;;;;;18.80;15.30;;;;;;;8.04;100.00;99755.38;109153;1256;64780;-77
2024/02/17 10:19:00;;;;;;;18.40;16.40;;;;;;;8.04;100.00;99755.39;109166;1256;61246;-76
2024/02/17 10:21:26;;;;;;;18.60;15.50;;;;;;;8.06;100.00;99760.07;109123;1258;63817;-76
2024/02/17 10:23:53;;;;;;;17.20;15.30;;;;;;;8.09;100.00;99760.61;109122;1256;59011;-76
2024/02/17 10:26:20;;;;;;;18.80;15.70;;;;;;;8.15;100.00;99769.38;109146;1256;59041;-76
2024/02/17 10:28:58;;;;;;;20.30;16.50;;;;;;;8.13;100.00;99769.46;109120;1256;66025;-77
2024/02/17 10:31:26;;;;;;;23.20;16.30;;;;;;;8.11;100.00;99772.23;109138;1256;61045;-76
2024/02/17 10:33:53;;;;;;;18.90;15.40;;;;;;;8.11;100.00;99769.73;108996;1256;65137;-75
2024/02/17 10:36:22;;;;;;;18.90;15.90;;;;;;;8.08;100.00;99768.27;109121;1256;59012;-77
2024/02/17 10:38:50;;;;;;;19.50;16.10;;;;;;;8.03;100.00;99769.56;109102;1257;59115;-76
2024/02/17 10:41:18;;;;;;;22.10;16.70;;;;;;;7.99;100.00;99776.09;109108;1258;66164;-76
2024/02/17 10:43:47;;;;;;;18.20;15.10;;;;;;;7.99;100.00;99774.36;109034;1257;60728;-78
2024/02/17 10:46:26;;;;;;;17.20;15.40;;;;;;;8.01;100.00;99773.39;109130;1260;64747;-76
2024/02/17 10:49:06;;;;;;;18.00;15.10;;;;;;;8.06;100.00;99770.70;109111;1257;59202;-75
2024/02/17 10:51:35;;;;;;;;;;;;;;;8.13;100.00;99771.77;109140;1256;58848;-76
2024/02/17 10:54:05;;;;;;;17.90;14.70;;;;;;;8.20;100.00;99774.31;109126;1257;66168;-75
2024/02/17 10:56:34;;;;;;;18.80;15.90;;;;;;;8.21;100.00;99773.89;109015;1256;60185;-76
2024/02/17 10:59:03;;;;;;;18.60;16.60;;;;;;;8.21;100.00;99774.09;109114;1257;65255;-75
2024/02/17 11:01:30;;;;;;;19.20;17.30;;;;;;;8.23;100.00;99772.73;109101;1256;58989;-77
2024/02/17 11:03:59;;;;;;;20.00;16.70;;;;;;;8.27;100.00;99773.29;109130;1256;59050;-76
2024/02/17 11:06:27;;;;;;;19.90;17.80;;;;;;;8.30;100.00;99773.49;109130;1256;67044;-76
2024/02/17 11:08:53;;;;;;;17.70;15.80;;;;;;;8.31;100.00;99772.21;109127;1256;60804;-76
2024/02/17 11:11:25;;;;;;;20.70;18.00;;;;;;;8.30;100.00;99776.84;109124;1256;64040;-77